Grand Forks, ND (58201)

8:34 PM CST on February 06, 2016 (GMT -0600)
APRSWXNET | | Change Station
CLOSE
Current Station
Personal Weather Station
Location: Grand Forks Air Force Base, ND
Elevation: 846 ft
Nearby Weather Stations
Active Advisory: Blizzard Warning

Elev 846 ft 47.89 °N, 97.16 °W | Updated 25 minutes ago

Overcast
Overcast
40 °F
Feels Like 33 °F
N
11
Wind Variable Wind from WSW
Gusts 16.0 mph

Today
High -- | Low -- °F
--% Chance of Precip.
Yesterday
High -- | Low -- °F
Precip. -- in
Pressure 29.56 in
Visibility 10.0 miles
Clouds Overcast 8000 ft
Windchill 33 °F
Dew Point 35 °F
Humidity 82%
Rainfall in
Snow Depth Not available.
7:49 AM 5:35 PM
Waning Crescent, 3% visible
METAR KGFK 070153Z 25013KT 10SM OVC080 04/00 A2952 RMK AO2 SLP009 T00440000 $
Pressure 29.56 in
Visibility 10.0 miles
Clouds Overcast 8000 ft
Windchill 33 °F
Dew Point 35 °F
Humidity 82%
Rainfall in
Snow Depth Not available.
7:49 AM 5:35 PM
Waning Crescent, 3% visible
METAR KGFK 070153Z 25013KT 10SM OVC080 04/00 A2952 RMK AO2 SLP009 T00440000 $

10-Day Weather Forecast

Almanac

Astronomy

Feb. 06, 2016 Rise Set
Actual Time
Civil Twilight
Nautical Twilight
Astronomical Twilight
Moon
Length of Visible Light
Length of Day
Tomorrow will be .
, % of the Moon is Illuminated

Today's Extremes

State Highs State Lows

Community

WunderPhotos

Upload Photos

1,891,139 photos uploaded!

WunderBlog® & News

Nearby

Air Quality

  Air Quality AQ Index Pollutant
Not available.

Snow Depth

Station Depth Elevation

Earthquake Activity

City Distance Mag. Time & Date
Minimum magnitude displayed is 2.5.

Coastal Water Temperatures

Place Temperature

Stations

Nearby Weather Stations

Station Location Temp. Windchill Dew Point Humidity Wind Precip. Elev Updated Type
                   

Watches & Warnings

Blizzard Warning
Issued: 8:17 PM CST Feb. 6, 2016 – National Weather Service

... Blizzard Warning remains in effect from 6 am Sunday to 6 am
CST Monday...

* timing... expect blizzard conditions to develop around 6 am
Sunday and then diminish around 6 am Monday.

* Winds / visibilities... winds gusting as high as 65 mph will
cause whiteout conditions in blowing snow. Significant
drifting of the snow is likely... especially in open areas.
Expect damage to trees and power lines as well.

* Snow accumulations... total snow accumulations of 1 to 3 inches
are expected.

* Impacts... travel will be very difficult to impossible.

Precautionary/preparedness actions...

A Blizzard Warning means severe winter weather conditions are
expected or occurring. Falling and blowing snow with strong winds
and poor visibilities are likely. This will lead to whiteout
conditions... making travel extremely dangerous. Do not travel. If
you must travel... have a winter survival kit with you. If you get
stranded... stay with your vehicle. The latest Road conditions for
the state you are calling from can be obtained by calling 5 1 1.